TNCC/CUR METAR and TAF weather

Enter ICAO airport designator
Station Type Date Time Source
TNCC METAR 2022/07/01 00:00 UTC NOAA

TNCC 010000Z 08015KT 9999 FEW018 27/24 Q1012 NOSIG=


Station Type Date Time Source
TNCC Decoded METAR 2022/07/01 00:00 UTC NOAA

Hato Airport, Curacao, Netherlands Antilles (TNCC) 12-12N 068-58W 67M
Jun 30, 2022 - 08:00 PM EDT / 2022.07.01 0000 UTC
Wind: from the E (080 degrees) at 17 MPH (15 KT):0
Visibility: greater than 7 mile(s):0
Sky conditions: mostly clear
Temperature: 80 F (27 C)
Dew Point: 75 F (24 C)
Relative Humidity: 83%
Pressure (altimeter): 29.88 in. Hg (1012 hPa)
ob: TNCC 010000Z 08015KT 9999 FEW018 27/24 Q1012 NOSIG=
cycle: 0

Station Type Date Time Source
TNCC TAF 2022/06/30 18:27 UTC NOAA

TAF TNCC 301715Z 3018/0118 09013KT 9999 SCT022 PROB40
TEMPO 0104/0116 09015G25KT 4000 TSRA SHRA SCT012CB BKN015

Example: see airport list